Capitol Logistics 309


PGUM
Guam International Airport
Guam, GU
RJAA
Tokyo-Narita International Airport
Tokyo, JP

Route Details

Aircraft Information
Primary: Boeing 767-300BDSF
Backup: Not Available
Route Data
Distance: 849nm
Sched. Duration: 3h 45m
Avg. Duration: 3h 37m (-7m)
Times Flown: 3
Recm'd Route: UNZ TERYY G205 TEGOD A337 DAGDA G223 ADKAK Y819 CATCH Y815 KETAR Y811 VEPOX Y811 MELON
Planned Altitude: 35,000ft
Origin Wx: PGUM 271754Z 00000KT 10SM CLR 25/24 A2985 RMK AO2 SLP099 60000 T02500239 10267 20244 55005
Dest. Wx: RJAA 271730Z 35005KT 9999 FEW030 12/11 Q1019 NOSIG RMK 1CU030 A3011
Notes:

Financial History
Total Freight: 259,765lbs
Average Load: 86,588lbs/flt
Fuel Used: 112,706lbs
Avg. Fuel Used: 37,569lbs/flt
Fuel Expense: $90,165
Avg. Fuel Expense: $30,055
Avg. Fuel Cost: $0.80/lbs
Total Gross Income: $427,236
Pilot Pay: $687
Total Expenses: $46,297
Total Revenue: $288,028
Average Revenue: $142,411.96